Time;durP1;ratioP1;P1;durP2;ratioP2;P2;SDS_P1;SDS_P2;PMS_P1;PMS_P2;Temp;Humidity;BMP_temperature;BMP_pressure;BME280_temperature;BME280_humidity;BME280_pressure;Samples;Min_cycle;Max_cycle;Signal;HPM_P1;HPM_P2
2021/11/18 00:01:09;;;;;;;16.08;9.30;;;6.70;99.90;;;;;;5039705;28;20541;-80
2021/11/18 00:03:35;;;;;;;14.32;8.52;;;6.80;99.90;;;;;;5022496;28;20037;-80
2021/11/18 00:06:01;;;;;;;14.80;8.93;;;6.70;99.90;;;;;;5029098;28;20101;-81
2021/11/18 00:08:27;;;;;;;16.13;9.73;;;6.70;99.90;;;;;;5031246;28;20030;-79
2021/11/18 00:10:58;;;;;;;15.05;9.65;;;6.70;99.90;;;;;;5030351;28;20091;-80
2021/11/18 00:13:28;;;;;;;15.10;9.50;;;6.70;99.90;;;;;;5023454;28;20048;-81
2021/11/18 00:15:55;;;;;;;12.77;8.43;;;6.70;99.90;;;;;;5018799;28;20117;-80
2021/11/18 00:18:23;;;;;;;16.23;9.57;;;6.70;99.90;;;;;;5016148;28;20030;-81
2021/11/18 00:20:53;;;;;;;12.70;9.20;;;6.70;99.90;;;;;;5029021;28;20037;-80
2021/11/18 00:23:20;;;;;;;18.10;10.05;;;6.70;99.90;;;;;;5028763;28;20044;-80
2021/11/18 00:25:46;;;;;;;18.48;10.07;;;6.70;99.90;;;;;;5019838;28;20033;-81
2021/11/18 00:28:12;;;;;;;12.70;8.52;;;6.70;99.90;;;;;;5027299;28;20084;-80
2021/11/18 00:30:38;;;;;;;17.27;8.80;;;6.80;99.90;;;;;;5016951;28;20034;-81
2021/11/18 00:33:04;;;;;;;16.00;8.75;;;6.80;99.90;;;;;;5015594;28;20034;-80
2021/11/18 00:35:32;;;;;;;15.60;9.45;;;6.80;99.90;;;;;;5015244;28;20029;-79
2021/11/18 00:37:58;;;;;;;14.13;9.05;;;6.80;99.90;;;;;;5024698;28;20029;-79
2021/11/18 00:40:27;;;;;;;14.10;9.65;;;6.80;99.90;;;;;;5036257;28;20063;-80
2021/11/18 00:42:53;;;;;;;15.50;9.38;;;6.80;99.90;;;;;;5031477;28;20037;-81
2021/11/18 00:45:21;;;;;;;12.95;9.32;;;6.90;99.90;;;;;;5027986;28;20033;-80
2021/11/18 00:47:51;;;;;;;12.73;9.13;;;6.90;99.90;;;;;;5022921;28;20445;-80
2021/11/18 00:50:19;;;;;;;12.35;8.88;;;6.90;99.90;;;;;;5015470;28;20541;-80
2021/11/18 00:52:45;;;;;;;14.98;9.98;;;6.90;99.90;;;;;;5020284;28;20065;-80
2021/11/18 00:55:11;;;;;;;14.30;9.60;;;6.80;99.90;;;;;;5020618;28;20050;-81
2021/11/18 00:57:38;;;;;;;17.30;9.48;;;6.80;99.90;;;;;;5024403;28;20052;-80
2021/11/18 01:00:08;;;;;;;15.32;9.63;;;6.90;99.90;;;;;;5017029;28;20034;-80
2021/11/18 01:02:34;;;;;;;14.25;9.65;;;6.90;99.90;;;;;;5025808;28;20040;-81
2021/11/18 01:04:59;;;;;;;13.18;9.75;;;6.90;99.90;;;;;;5023704;28;20030;-80
2021/11/18 01:07:25;;;;;;;14.25;9.30;;;7.00;99.90;;;;;;5025161;28;20033;-79
2021/11/18 01:09:50;;;;;;;13.02;9.18;;;7.00;99.90;;;;;;5033690;28;20033;-80
2021/11/18 01:12:16;;;;;;;14.27;9.60;;;7.00;99.90;;;;;;5023177;28;20038;-80
2021/11/18 01:14:41;;;;;;;14.10;9.40;;;7.10;99.90;;;;;;5022262;28;20417;-80
2021/11/18 01:17:07;;;;;;;14.70;9.50;;;7.20;99.90;;;;;;5030538;28;20036;-81
2021/11/18 01:19:33;;;;;;;14.82;9.15;;;7.20;99.90;;;;;;5013108;28;20104;-79
2021/11/18 01:22:00;;;;;;;14.45;9.35;;;7.20;99.90;;;;;;5018378;28;20499;-79
2021/11/18 01:24:26;;;;;;;13.07;8.32;;;7.20;99.90;;;;;;5024362;28;20037;-80
2021/11/18 01:26:52;;;;;;;16.05;9.85;;;7.20;99.90;;;;;;5017572;28;20038;-80
2021/11/18 01:29:17;;;;;;;18.40;8.88;;;7.30;99.90;;;;;;5017690;28;20433;-80
2021/11/18 01:31:43;;;;;;;14.77;8.65;;;7.30;99.90;;;;;;5027285;28;20079;-80
2021/11/18 01:34:09;;;;;;;16.42;9.77;;;7.20;99.90;;;;;;5036450;28;20061;-81
2021/11/18 01:36:35;;;;;;;13.95;9.02;;;7.20;99.90;;;;;;5029690;28;20101;-81
2021/11/18 01:39:01;;;;;;;14.52;9.63;;;7.20;99.90;;;;;;5015534;28;20034;-81
2021/11/18 01:41:29;;;;;;;14.05;9.18;;;7.20;99.90;;;;;;5029623;28;20029;-81
2021/11/18 01:43:59;;;;;;;15.55;8.93;;;7.20;99.90;;;;;;5029789;28;20052;-80
2021/11/18 01:46:33;;;;;;;13.07;8.25;;;7.30;99.90;;;;;;5018419;28;20104;-81
2021/11/18 01:49:01;;;;;;;14.40;8.63;;;7.30;99.90;;;;;;5026623;28;20036;-81
2021/11/18 01:51:34;;;;;;;14.30;8.18;;;7.30;99.90;;;;;;5018539;28;20034;-81
2021/11/18 01:54:00;;;;;;;14.80;8.52;;;7.30;99.90;;;;;;5029597;28;20049;-81
2021/11/18 01:56:29;;;;;;;13.82;8.23;;;7.30;99.90;;;;;;5018194;28;20529;-80
2021/11/18 01:58:58;;;;;;;12.52;8.13;;;7.40;99.90;;;;;;5021534;28;20087;-81
2021/11/18 02:01:25;;;;;;;13.73;8.68;;;7.30;99.90;;;;;;5023552;28;20034;-78
2021/11/18 02:03:51;;;;;;;11.35;8.25;;;7.30;99.90;;;;;;5025104;28;20030;-78
2021/11/18 02:06:31;;;;;;;13.90;8.30;;;7.30;99.90;;;;;;5030782;28;20029;-79
2021/11/18 02:08:57;;;;;;;12.48;8.30;;;7.30;99.90;;;;;;5028901;28;20092;-79
2021/11/18 02:11:39;;;;;;;13.75;8.85;;;7.20;99.90;;;;;;5014475;28;20460;-80
2021/11/18 02:14:07;;;;;;;12.27;8.40;;;7.20;99.90;;;;;;5027606;28;20494;-80
2021/11/18 02:16:34;;;;;;;16.88;9.60;;;7.20;99.90;;;;;;5020318;28;20083;-79
2021/11/18 02:18:59;;;;;;;14.23;9.48;;;7.20;99.90;;;;;;5021295;28;20038;-81
2021/11/18 02:21:25;;;;;;;15.68;8.93;;;7.20;99.90;;;;;;5017148;28;20394;-81
2021/11/18 02:23:53;;;;;;;14.88;8.98;;;7.20;99.90;;;;;;5021442;28;20025;-81
2021/11/18 02:26:21;;;;;;;11.98;8.38;;;7.20;99.90;;;;;;5018944;28;20428;-81
2021/11/18 02:28:49;;;;;;;13.55;8.52;;;7.20;99.90;;;;;;5021620;28;20060;-81
2021/11/18 02:31:38;;;;;;;13.27;8.75;;;7.20;99.90;;;;;;5015266;28;20459;-80
2021/11/18 02:34:10;;;;;;;15.85;10.93;;;7.20;99.90;;;;;;5026178;28;20104;-81
2021/11/18 02:36:35;;;;;;;17.15;9.23;;;7.20;99.90;;;;;;5012787;28;20022;-79
2021/11/18 02:39:01;;;;;;;14.63;8.05;;;7.20;99.90;;;;;;5018043;28;20132;-79
2021/11/18 02:41:27;;;;;;;14.85;8.85;;;7.20;99.90;;;;;;5023076;28;20455;-81
2021/11/18 02:43:52;;;;;;;17.50;9.68;;;7.20;99.90;;;;;;5014221;28;20033;-80
2021/11/18 02:46:18;;;;;;;15.75;9.57;;;7.20;99.90;;;;;;5021038;28;20030;-79
2021/11/18 02:48:44;;;;;;;14.13;8.73;;;7.20;99.90;;;;;;5025244;28;20393;-80
2021/11/18 02:51:12;;;;;;;16.02;8.70;;;7.20;99.90;;;;;;5017627;28;20034;-80
2021/11/18 02:53:39;;;;;;;16.45;8.10;;;7.20;99.90;;;;;;5026261;28;20030;-80
2021/11/18 02:56:06;;;;;;;14.60;8.13;;;7.20;99.90;;;;;;5020756;28;20045;-80
2021/11/18 02:58:32;;;;;;;14.20;8.38;;;7.30;99.90;;;;;;5015295;28;20115;-80
2021/11/18 03:01:09;;;;;;;11.63;7.65;;;7.30;99.90;;;;;;5018450;28;20061;-79
2021/11/18 03:03:35;;;;;;;12.57;7.95;;;7.30;99.90;;;;;;5016471;28;20044;-79
2021/11/18 03:06:01;;;;;;;11.52;7.80;;;7.30;99.90;;;;;;5018171;28;20486;-80
2021/11/18 03:08:27;;;;;;;16.15;7.72;;;7.30;99.90;;;;;;5016504;28;20165;-80
2021/11/18 03:10:54;;;;;;;12.23;7.57;;;7.30;99.90;;;;;;5025511;28;20437;-80
2021/11/18 03:13:21;;;;;;;13.25;7.85;;;7.30;99.90;;;;;;5013031;28;20034;-80
2021/11/18 03:15:47;;;;;;;15.02;7.78;;;7.30;99.90;;;;;;5016807;28;20649;-81
2021/11/18 03:18:13;;;;;;;14.95;8.13;;;7.30;99.90;;;;;;5026242;28;20437;-81
2021/11/18 03:20:40;;;;;;;12.77;7.50;;;7.30;99.90;;;;;;5020582;28;20058;-82
2021/11/18 03:23:05;;;;;;;12.63;6.80;;;7.30;99.90;;;;;;5033943;28;20110;-81
2021/11/18 03:25:33;;;;;;;13.10;7.88;;;7.30;99.90;;;;;;5020166;28;20556;-80
2021/11/18 03:28:00;;;;;;;14.63;7.40;;;7.30;99.90;;;;;;5018676;28;20466;-80
2021/11/18 03:30:32;;;;;;;12.57;6.47;;;7.30;99.90;;;;;;5021563;28;20034;-80
2021/11/18 03:32:59;;;;;;;11.02;7.22;;;7.30;99.90;;;;;;5011367;28;20029;-81
2021/11/18 03:35:25;;;;;;;15.57;8.18;;;7.30;99.90;;;;;;5021597;28;20033;-81
2021/11/18 03:37:52;;;;;;;13.60;7.43;;;7.30;99.90;;;;;;5017050;28;20389;-80
2021/11/18 03:40:19;;;;;;;12.25;7.45;;;7.30;99.90;;;;;;5014739;28;20038;-81
2021/11/18 03:42:45;;;;;;;12.98;7.72;;;7.30;99.90;;;;;;5027129;28;20463;-81
2021/11/18 03:45:13;;;;;;;12.43;6.75;;;7.30;99.90;;;;;;5026439;28;20306;-81
2021/11/18 03:47:39;;;;;;;17.85;8.45;;;7.30;99.90;;;;;;5014193;28;20021;-79
2021/11/18 03:50:05;;;;;;;11.77;7.70;;;7.30;99.90;;;;;;5017873;28;20116;-81
2021/11/18 03:52:31;;;;;;;16.67;7.45;;;7.40;99.90;;;;;;5013585;28;20045;-81
2021/11/18 03:54:56;;;;;;;16.15;7.57;;;7.40;99.90;;;;;;5016052;28;20061;-80
2021/11/18 03:57:22;;;;;;;12.15;6.55;;;7.40;99.90;;;;;;5035650;28;20048;-79
2021/11/18 03:59:49;;;;;;;12.90;7.25;;;7.40;99.90;;;;;;5017318;28;20022;-79
2021/11/18 04:02:16;;;;;;;18.08;8.38;;;7.50;99.90;;;;;;5021286;28;20449;-80
2021/11/18 04:04:45;;;;;;;13.07;7.13;;;7.50;99.90;;;;;;5013660;28;20117;-79
2021/11/18 04:07:12;;;;;;;11.43;7.72;;;7.50;99.90;;;;;;5016634;28;20208;-79
2021/11/18 04:09:38;;;;;;;11.52;6.75;;;7.50;99.90;;;;;;5024920;28;20030;-79
2021/11/18 04:12:05;;;;;;;17.88;8.02;;;7.50;99.90;;;;;;5023478;28;20475;-79
2021/11/18 04:14:35;;;;;;;15.52;8.02;;;7.40;99.90;;;;;;5018075;28;20034;-79
2021/11/18 04:17:00;;;;;;;12.65;7.53;;;7.40;99.90;;;;;;5021995;28;20048;-79
2021/11/18 04:19:26;;;;;;;13.15;7.05;;;7.30;99.90;;;;;;5009911;28;20034;-80
2021/11/18 04:21:52;;;;;;;14.40;7.38;;;7.30;99.90;;;;;;5011915;28;20111;-80
2021/11/18 04:24:21;;;;;;;12.35;7.38;;;7.30;99.90;;;;;;5016532;28;20161;-80
2021/11/18 04:26:48;;;;;;;9.27;6.57;;;7.30;99.90;;;;;;5027690;28;20033;-80
2021/11/18 04:29:16;;;;;;;13.02;7.65;;;7.30;99.90;;;;;;5014633;28;20117;-80
2021/11/18 04:31:41;;;;;;;12.55;6.88;;;7.30;99.90;;;;;;5014498;28;20029;-80
2021/11/18 04:34:08;;;;;;;11.57;7.43;;;7.30;99.90;;;;;;5021921;28;20398;-81
2021/11/18 04:36:36;;;;;;;11.77;6.80;;;7.40;99.90;;;;;;5029388;28;20041;-81
2021/11/18 04:39:04;;;;;;;14.55;7.68;;;7.40;99.90;;;;;;5025952;28;20403;-81
2021/11/18 04:41:29;;;;;;;13.23;7.28;;;7.40;99.90;;;;;;5017206;28;20025;-82
2021/11/18 04:43:57;;;;;;;12.18;6.15;;;7.40;99.90;;;;;;5023323;28;20033;-80
2021/11/18 04:46:23;;;;;;;12.43;7.40;;;7.40;99.90;;;;;;5024213;28;20528;-80
2021/11/18 04:48:49;;;;;;;11.40;7.05;;;7.40;99.90;;;;;;5021427;28;20675;-80
2021/11/18 04:51:20;;;;;;;11.60;6.95;;;7.30;99.90;;;;;;5029065;28;20033;-81
2021/11/18 04:53:46;;;;;;;13.85;6.88;;;7.30;99.90;;;;;;5034873;28;20029;-81
2021/11/18 04:56:12;;;;;;;13.68;7.93;;;7.30;99.90;;;;;;5048124;28;20096;-82
2021/11/18 04:58:38;;;;;;;14.07;7.15;;;7.40;99.90;;;;;;5067467;28;20024;-80
2021/11/18 05:01:05;;;;;;;13.50;6.55;;;7.40;99.90;;;;;;5036306;28;20375;-80
2021/11/18 05:03:32;;;;;;;13.73;8.45;;;7.40;99.90;;;;;;5027969;28;20470;-80
2021/11/18 05:05:58;;;;;;;12.27;7.00;;;7.40;99.90;;;;;;5030990;28;20084;-80
2021/11/18 05:08:23;;;;;;;12.82;6.57;;;7.40;99.90;;;;;;5025235;28;20029;-79
2021/11/18 05:10:52;;;;;;;16.00;6.65;;;7.40;99.90;;;;;;5031428;28;20103;-79
2021/11/18 05:13:20;;;;;;;14.23;7.53;;;7.50;99.90;;;;;;5031386;28;20045;-83
2021/11/18 05:15:47;;;;;;;9.43;6.45;;;7.50;99.90;;;;;;5025620;28;20029;-79
2021/11/18 05:18:13;;;;;;;13.63;7.53;;;7.50;99.90;;;;;;5024976;28;20061;-79
2021/11/18 05:20:40;;;;;;;11.48;7.28;;;7.50;99.90;;;;;;5027915;28;20117;-79
2021/11/18 05:23:06;;;;;;;15.40;6.53;;;7.50;99.90;;;;;;5029192;28;20116;-80
2021/11/18 05:25:32;;;;;;;14.93;6.80;;;7.50;99.90;;;;;;5030864;28;20041;-80
2021/11/18 05:27:59;;;;;;;14.65;6.75;;;7.50;99.90;;;;;;5032107;28;20433;-79
2021/11/18 05:30:27;;;;;;;11.38;6.25;;;7.50;99.90;;;;;;5023447;28;20182;-80
2021/11/18 05:32:55;;;;;;;12.45;6.28;;;7.50;99.90;;;;;;5018975;28;20508;-80
2021/11/18 05:35:23;;;;;;;11.15;6.85;;;7.50;99.90;;;;;;5031614;28;20045;-80
2021/11/18 05:37:49;;;;;;;12.02;6.40;;;7.50;99.90;;;;;;5022351;28;20405;-80
2021/11/18 05:40:14;;;;;;;10.70;6.50;;;7.50;99.90;;;;;;5024108;28;20021;-80
2021/11/18 05:42:40;;;;;;;12.38;7.15;;;7.50;99.90;;;;;;5026741;28;20230;-80
2021/11/18 05:45:09;;;;;;;12.55;7.35;;;7.50;99.90;;;;;;5027682;28;20097;-82
2021/11/18 05:47:34;;;;;;;14.95;6.88;;;7.60;99.90;;;;;;5030661;28;20375;-81
2021/11/18 05:50:00;;;;;;;12.88;6.72;;;7.60;99.90;;;;;;5016723;28;20041;-79
2021/11/18 05:52:26;;;;;;;16.20;7.45;;;7.60;99.90;;;;;;5020011;28;20037;-79
2021/11/18 05:54:55;;;;;;;14.40;6.03;;;7.60;99.90;;;;;;5014100;28;20038;-82
2021/11/18 05:57:20;;;;;;;15.60;7.20;;;7.60;99.90;;;;;;5010487;28;20025;-82
2021/11/18 05:59:46;;;;;;;11.50;6.13;;;7.60;99.90;;;;;;5014512;28;20674;-80
2021/11/18 06:02:12;;;;;;;13.80;7.45;;;7.60;99.90;;;;;;5029153;28;20045;-81
2021/11/18 06:04:37;;;;;;;15.35;6.47;;;7.50;99.90;;;;;;5030116;28;20108;-82
2021/11/18 06:07:04;;;;;;;13.68;6.90;;;7.50;99.90;;;;;;5031888;28;20041;-81
2021/11/18 06:09:29;;;;;;;12.65;7.00;;;7.50;99.90;;;;;;5030183;28;20026;-81
2021/11/18 06:11:55;;;;;;;15.35;7.40;;;7.40;99.90;;;;;;5025126;28;20029;-81
2021/11/18 06:14:20;;;;;;;10.75;6.72;;;7.40;99.90;;;;;;5010806;28;20049;-81
2021/11/18 06:16:46;;;;;;;14.38;6.68;;;7.40;99.90;;;;;;5033089;28;20200;-80
2021/11/18 06:19:12;;;;;;;14.07;7.05;;;7.40;99.90;;;;;;5029020;28;20164;-81
2021/11/18 06:21:42;;;;;;;14.85;7.65;;;7.50;99.90;;;;;;5031079;28;20101;-81
2021/11/18 06:24:08;;;;;;;9.60;6.28;;;7.50;99.90;;;;;;5031207;28;20041;-81
2021/11/18 06:26:34;;;;;;;11.93;7.63;;;7.40;99.90;;;;;;5029606;28;20036;-81
2021/11/18 06:29:00;;;;;;;14.40;7.10;;;7.50;99.90;;;;;;5029172;28;20021;-81
2021/11/18 06:31:26;;;;;;;12.95;6.63;;;7.50;99.90;;;;;;5030486;28;20033;-81
2021/11/18 06:33:53;;;;;;;18.88;6.93;;;7.50;99.90;;;;;;5026866;28;20041;-80
2021/11/18 06:36:19;;;;;;;15.77;6.90;;;7.50;99.90;;;;;;5023418;28;20037;-80
2021/11/18 06:38:49;;;;;;;15.38;7.78;;;7.40;99.90;;;;;;5023377;28;20034;-81
2021/11/18 06:41:17;;;;;;;19.38;7.00;;;7.40;99.90;;;;;;5029426;28;20037;-80
2021/11/18 06:43:44;;;;;;;14.73;6.80;;;7.40;99.90;;;;;;5018155;28;20159;-80
2021/11/18 06:46:11;;;;;;;16.42;7.22;;;7.40;99.90;;;;;;5021285;28;20708;-81
2021/11/18 06:48:37;;;;;;;22.23;7.97;;;7.40;99.90;;;;;;5016583;28;20158;-80
2021/11/18 06:51:07;;;;;;;17.75;7.50;;;7.40;99.90;;;;;;5019669;28;20478;-81
2021/11/18 06:53:34;;;;;;;12.23;6.60;;;7.40;99.90;;;;;;5012462;28;20071;-81
2021/11/18 06:56:01;;;;;;;12.77;6.18;;;7.40;99.90;;;;;;5012028;28;20066;-81
2021/11/18 06:58:27;;;;;;;14.70;6.32;;;7.50;99.90;;;;;;5024530;28;20044;-81
2021/11/18 07:00:53;;;;;;;11.20;6.18;;;7.50;99.90;;;;;;5020721;28;20589;-81
2021/11/18 07:03:18;;;;;;;14.35;6.90;;;7.60;99.90;;;;;;5010465;28;20545;-81
2021/11/18 07:05:44;;;;;;;14.75;6.85;;;7.50;99.90;;;;;;5011231;28;20087;-81
2021/11/18 07:08:10;;;;;;;16.55;7.53;;;7.60;99.90;;;;;;5017676;28;20113;-80
2021/11/18 07:10:39;;;;;;;18.13;6.47;;;7.50;99.90;;;;;;5025482;28;20045;-81
2021/11/18 07:13:05;;;;;;;10.80;6.07;;;7.50;99.90;;;;;;5040536;28;20030;-81
2021/11/18 07:15:31;;;;;;;14.90;5.90;;;7.60;99.90;;;;;;5009711;28;20034;-81
2021/11/18 07:17:57;;;;;;;20.70;7.00;;;7.70;99.90;;;;;;5015719;28;20044;-80
2021/11/18 07:20:26;;;;;;;15.02;7.00;;;7.70;99.90;;;;;;5029569;28;20060;-81
2021/11/18 07:22:52;;;;;;;15.63;6.25;;;7.80;99.90;;;;;;5026648;28;20116;-82
2021/11/18 07:25:24;;;;;;;13.57;6.63;;;7.70;99.90;;;;;;5010074;28;20037;-81
2021/11/18 07:27:50;;;;;;;13.98;6.60;;;7.80;99.90;;;;;;5026085;28;20026;-82
2021/11/18 07:30:17;;;;;;;16.08;6.85;;;7.80;99.90;;;;;;5030820;28;20580;-81
2021/11/18 07:32:43;;;;;;;18.17;7.22;;;7.80;99.90;;;;;;5012851;28;20026;-81
2021/11/18 07:35:09;;;;;;;15.45;6.60;;;7.80;99.90;;;;;;5017135;28;20087;-82
2021/11/18 07:37:35;;;;;;;14.02;5.72;;;7.90;99.90;;;;;;5022045;28;20114;-82
2021/11/18 07:40:02;;;;;;;13.57;6.22;;;7.90;99.90;;;;;;5026423;28;20484;-81
2021/11/18 07:42:27;;;;;;;18.30;6.47;;;8.00;99.90;;;;;;5030758;28;20060;-81
2021/11/18 07:44:53;;;;;;;14.82;7.18;;;8.00;99.90;;;;;;5028489;28;20166;-81
2021/11/18 07:47:18;;;;;;;15.48;6.05;;;8.00;99.90;;;;;;5024017;28;20092;-81
2021/11/18 07:49:44;;;;;;;13.27;6.43;;;8.10;99.90;;;;;;5026253;28;20487;-81
2021/11/18 07:52:09;;;;;;;14.57;5.70;;;8.10;99.90;;;;;;5025940;28;20033;-82
2021/11/18 07:54:35;;;;;;;10.18;6.10;;;8.20;99.90;;;;;;5026631;28;20026;-80
2021/11/18 07:57:01;;;;;;;16.05;6.53;;;8.30;99.90;;;;;;5026217;28;20640;-82
2021/11/18 07:59:27;;;;;;;11.18;6.00;;;8.30;99.90;;;;;;5023385;28;20021;-81
2021/11/18 08:01:53;;;;;;;14.45;6.30;;;8.40;99.90;;;;;;5024195;28;20162;-81
2021/11/18 08:04:18;;;;;;;13.95;6.43;;;8.40;99.90;;;;;;5024800;28;20503;-81
2021/11/18 08:06:45;;;;;;;11.05;5.55;;;8.40;99.90;;;;;;5025707;28;20029;-82
2021/11/18 08:09:12;;;;;;;14.18;5.85;;;8.50;99.70;;;;;;5024727;28;20164;-83
2021/11/18 08:11:42;;;;;;;15.60;6.65;;;8.50;99.60;;;;;;5025764;28;20106;-81
2021/11/18 08:14:08;;;;;;;16.45;5.97;;;8.50;99.70;;;;;;5025732;28;20071;-81
2021/11/18 08:16:34;;;;;;;13.35;7.25;;;8.50;99.70;;;;;;5024423;28;20478;-81
2021/11/18 08:19:00;;;;;;;13.02;5.82;;;8.50;99.80;;;;;;5025256;28;20025;-82
2021/11/18 08:21:26;;;;;;;17.95;6.25;;;8.60;99.60;;;;;;5046744;28;20036;-81
2021/11/18 08:23:52;;;;;;;13.60;5.95;;;8.70;99.50;;;;;;5038894;28;20526;-82
2021/11/18 08:26:19;;;;;;;12.93;5.85;;;8.70;99.50;;;;;;5036061;28;20079;-81
2021/11/18 08:28:45;;;;;;;12.05;6.10;;;8.80;99.50;;;;;;5013736;28;20172;-81
2021/11/18 08:31:13;;;;;;;14.60;6.80;;;8.80;99.30;;;;;;5022739;28;20453;-82
2021/11/18 08:33:40;;;;;;;14.13;5.90;;;8.80;99.20;;;;;;5027162;28;20053;-81
2021/11/18 08:36:05;;;;;;;9.52;5.97;;;8.90;99.30;;;;;;5027412;28;20594;-81
2021/11/18 08:38:31;;;;;;;12.00;5.38;;;8.90;99.10;;;;;;5025338;28;20128;-82
2021/11/18 08:41:03;;;;;;;11.80;6.07;;;9.00;98.90;;;;;;5028803;28;20517;-82
2021/11/18 08:43:33;;;;;;;8.65;4.00;;;8.90;99.10;;;;;;5027863;28;20033;-80
2021/11/18 08:45:59;;;;;;;9.68;5.70;;;9.00;99.20;;;;;;5021304;28;20036;-81
2021/11/18 08:48:25;;;;;;;12.35;5.82;;;9.00;99.00;;;;;;5019622;28;20034;-81
2021/11/18 08:50:53;;;;;;;9.50;5.25;;;9.10;99.00;;;;;;5012455;28;20028;-78
2021/11/18 08:53:20;;;;;;;13.27;6.53;;;9.20;99.00;;;;;;5027483;28;20056;-78
2021/11/18 08:55:46;;;;;;;16.13;6.47;;;9.20;99.00;;;;;;5023330;28;20117;-79
2021/11/18 08:58:16;;;;;;;10.93;5.47;;;9.30;98.60;;;;;;5009053;28;20038;-79
2021/11/18 09:00:54;;;;;;;9.38;5.25;;;9.40;98.90;;;;;;5016186;28;20818;-80
2021/11/18 09:03:22;;;;;;;12.13;5.70;;;9.50;98.70;;;;;;5023351;28;20037;-80
2021/11/18 09:05:49;;;;;;;12.05;6.00;;;9.60;98.40;;;;;;5030728;28;20048;-80
2021/11/18 09:08:15;;;;;;;11.85;6.15;;;9.70;98.30;;;;;;5014497;28;20648;-79
2021/11/18 09:10:41;;;;;;;12.48;6.05;;;9.70;98.30;;;;;;5027797;28;20505;-81
2021/11/18 09:13:08;;;;;;;13.00;6.00;;;9.70;98.20;;;;;;5028698;28;20033;-80
2021/11/18 09:15:35;;;;;;;11.82;5.75;;;9.70;98.20;;;;;;5029652;28;20608;-81
2021/11/18 09:18:01;;;;;;;11.38;6.10;;;9.80;98.10;;;;;;5026571;28;20029;-79
2021/11/18 09:20:29;;;;;;;11.55;5.82;;;9.80;98.20;;;;;;5016987;28;20030;-80
2021/11/18 09:22:57;;;;;;;12.70;7.68;;;9.90;98.30;;;;;;5010996;28;22270;-79
2021/11/18 09:25:27;;;;;;;11.93;6.18;;;10.00;98.20;;;;;;5027993;28;20030;-79
2021/11/18 09:27:54;;;;;;;12.38;5.68;;;10.20;98.10;;;;;;5021116;28;20104;-80
2021/11/18 09:30:25;;;;;;;11.93;5.40;;;10.30;97.80;;;;;;5012757;28;20438;-80
2021/11/18 09:32:51;;;;;;;12.88;5.68;;;10.30;97.80;;;;;;5025632;28;20098;-80
2021/11/18 09:35:22;;;;;;;10.98;5.75;;;10.50;97.40;;;;;;5030765;28;20116;-80
2021/11/18 09:37:47;;;;;;;11.98;5.57;;;10.60;97.40;;;;;;5029714;28;20040;-79
2021/11/18 09:40:18;;;;;;;13.95;6.60;;;10.60;97.00;;;;;;5031070;28;20029;-80
2021/11/18 09:43:12;;;;;;;16.50;6.00;;;10.60;97.10;;;;;;5030888;28;20036;-78
2021/11/18 09:45:46;;;;;;;14.52;5.97;;;10.60;97.20;;;;;;5021671;28;20426;-80
2021/11/18 09:48:37;;;;;;;12.18;5.88;;;10.60;97.10;;;;;;5028965;28;20099;-80
2021/11/18 09:51:17;;;;;;;15.70;6.20;;;10.60;97.30;;;;;;5032375;28;20126;-80
2021/11/18 09:54:15;;;;;;;10.65;6.50;;;10.70;97.00;;;;;;5030664;28;20398;-78
2021/11/18 09:56:55;;;;;;;10.77;5.93;;;10.80;97.20;;;;;;5035110;28;20029;-78
2021/11/18 09:59:58;;;;;;;8.35;5.10;;;10.80;96.90;;;;;;5049049;28;20036;-80
2021/11/18 10:03:08;;;;;;;13.65;6.07;;;10.80;96.70;;;;;;5041895;28;20032;-81
2021/11/18 10:05:54;;;;;;;16.83;6.53;;;10.80;96.80;;;;;;5048880;28;20025;-80
2021/11/18 10:08:23;;;;;;;13.18;5.90;;;10.80;96.90;;;;;;5036470;28;20030;-79
2021/11/18 10:10:55;;;;;;;15.63;6.70;;;10.70;96.80;;;;;;5015712;28;20040;-80
2021/11/18 10:13:31;;;;;;;10.60;4.93;;;10.70;96.90;;;;;;5047207;28;20339;-79
2021/11/18 10:16:08;;;;;;;11.93;5.35;;;10.80;97.10;;;;;;5050156;28;20071;-78
2021/11/18 10:18:43;;;;;;;7.53;5.03;;;10.90;96.80;;;;;;5047910;28;20025;-80
2021/11/18 10:21:19;;;;;;;12.43;5.70;;;10.90;96.40;;;;;;5049392;28;20438;-80
2021/11/18 10:23:48;;;;;;;8.75;4.78;;;11.00;96.50;;;;;;5032599;28;20033;-79
2021/11/18 10:26:21;;;;;;;16.40;5.88;;;11.10;96.20;;;;;;5029432;28;20026;-80
2021/11/18 10:29:01;;;;;;;10.25;6.20;;;11.10;96.20;;;;;;5027330;28;20501;-80
2021/11/18 10:31:39;;;;;;;12.57;5.50;;;11.10;96.10;;;;;;5027950;28;20088;-79
2021/11/18 10:34:10;;;;;;;9.77;5.38;;;11.30;96.00;;;;;;5029232;28;20033;-80
2021/11/18 10:36:55;;;;;;;11.60;4.78;;;11.30;95.70;;;;;;5028990;28;20061;-82
2021/11/18 10:39:26;;;;;;;9.00;5.57;;;11.40;95.60;;;;;;5028018;28;20505;-79
2021/11/18 10:41:56;;;;;;;19.75;4.82;;;11.40;95.60;;;;;;5028214;28;20040;-77
2021/11/18 10:44:41;;;;;;;11.35;5.68;;;11.40;95.70;;;;;;5028451;28;20037;-80
2021/11/18 10:47:16;;;;;;;15.45;5.45;;;11.40;95.60;;;;;;5028776;28;20029;-79
2021/11/18 10:49:58;;;;;;;11.93;4.82;;;11.40;95.60;;;;;;5026516;28;20029;-81
2021/11/18 10:52:32;;;;;;;18.73;6.40;;;11.40;95.60;;;;;;5026076;28;20025;-81
2021/11/18 10:55:03;;;;;;;11.40;4.95;;;11.60;95.50;;;;;;5028834;28;20030;-80
2021/11/18 10:57:31;;;;;;;16.45;4.20;;;11.70;95.40;;;;;;5026881;28;20026;-80
2021/11/18 11:00:27;;;;;;;9.35;4.03;;;11.70;95.00;;;;;;5027795;28;20037;-81
2021/11/18 11:02:53;;;;;;;15.90;4.85;;;11.80;94.90;;;;;;5028119;28;20117;-80
2021/11/18 11:05:39;;;;;;;13.90;5.18;;;11.80;95.10;;;;;;5026488;28;20169;-80
2021/11/18 11:08:26;;;;;;;17.20;5.15;;;11.80;95.10;;;;;;5025488;28;20052;-80
2021/11/18 11:11:06;;;;;;;10.15;4.88;;;11.80;94.80;;;;;;5028315;28;20036;-81
2021/11/18 11:13:46;;;;;;;10.75;4.78;;;11.90;94.70;;;;;;5028144;28;20068;-80
2021/11/18 11:16:33;;;;;;;10.23;5.13;;;12.00;95.00;;;;;;5039779;28;20037;-80
2021/11/18 11:19:41;;;;;;;11.90;4.47;;;12.10;94.50;;;;;;5025812;28;20033;-78
2021/11/18 11:22:23;;;;;;;11.23;5.10;;;12.10;94.40;;;;;;5021548;28;20105;-80
2021/11/18 11:25:12;;;;;;;12.95;5.30;;;12.10;94.10;;;;;;5012687;28;20130;-79
2021/11/18 11:27:40;;;;;;;11.70;4.88;;;12.00;94.30;;;;;;5027428;28;20091;-79
2021/11/18 11:30:54;;;;;;;9.73;4.55;;;12.00;94.60;;;;;;5027863;28;20032;-80
2021/11/18 11:33:41;;;;;;;12.73;4.72;;;11.90;94.80;;;;;;4996196;28;20081;-80
2021/11/18 11:36:36;;;;;;;8.45;4.95;;;11.90;94.70;;;;;;5028292;28;20029;-79
2021/11/18 11:39:10;;;;;;;12.38;5.03;;;11.90;94.70;;;;;;5026615;28;20042;-79
2021/11/18 11:42:13;;;;;;;10.75;4.78;;;11.90;95.10;;;;;;5027279;28;20036;-80
2021/11/18 11:45:00;;;;;;;11.45;4.63;;;12.00;94.50;;;;;;5012302;28;20029;-79
2021/11/18 11:47:55;;;;;;;10.07;4.07;;;12.00;94.50;;;;;;5027786;28;20629;-80
2021/11/18 11:50:52;;;;;;;11.68;6.03;;;11.90;94.60;;;;;;5023446;28;20030;-79
2021/11/18 11:53:22;;;;;;;8.63;4.70;;;11.90;94.70;;;;;;5023225;28;20087;-81
2021/11/18 11:56:01;;;;;;;8.45;4.28;;;11.90;94.60;;;;;;5023708;28;20033;-79
2021/11/18 11:58:30;;;;;;;12.73;5.03;;;11.90;94.40;;;;;;5014739;28;20629;-79
2021/11/18 12:01:07;;;;;;;13.82;4.35;;;11.90;94.20;;;;;;5032247;28;20034;-80
2021/11/18 12:04:01;;;;;;;9.70;4.13;;;11.90;94.30;;;;;;5027181;28;20043;-80
2021/11/18 12:06:38;;;;;;;10.75;4.47;;;12.00;94.50;;;;;;5027270;28;20116;-79
2021/11/18 12:09:10;;;;;;;14.85;5.28;;;12.10;94.20;;;;;;5027365;28;20056;-81
2021/11/18 12:11:48;;;;;;;9.27;4.23;;;12.10;94.20;;;;;;5026078;28;20025;-80
2021/11/18 12:14:22;;;;;;;9.07;4.13;;;12.10;94.10;;;;;;5027320;28;20135;-80
2021/11/18 12:16:56;;;;;;;11.27;4.75;;;12.10;94.00;;;;;;5032155;28;20502;-81
2021/11/18 12:19:42;;;;;;;13.10;4.18;;;12.10;93.70;;;;;;5030481;28;20037;-80
2021/11/18 12:22:29;;;;;;;8.20;3.60;;;12.00;93.80;;;;;;5031973;28;20029;-81
2021/11/18 12:25:13;;;;;;;13.43;4.03;;;12.00;93.80;;;;;;5029012;28;20029;-80
2021/11/18 12:27:58;;;;;;;9.63;3.75;;;11.90;94.10;;;;;;5012428;28;20104;-81
2021/11/18 12:30:29;;;;;;;7.80;3.78;;;11.90;94.00;;;;;;5022941;28;20057;-81
2021/11/18 12:33:03;;;;;;;7.55;3.25;;;11.80;94.30;;;;;;5031414;28;20037;-80
2021/11/18 12:35:28;;;;;;;6.72;3.13;;;11.90;94.20;;;;;;5030600;28;20036;-81
2021/11/18 12:38:31;;;;;;;8.65;3.70;;;11.90;94.20;;;;;;5031775;28;20025;-81
2021/11/18 12:41:07;;;;;;;;;;;12.00;94.30;;;;;;5029287;28;20068;-81
2021/11/18 12:43:54;;;;;;;8.07;3.80;;;12.20;93.70;;;;;;5031204;28;19937;-80
2021/11/18 12:46:57;;;;;;;6.90;3.03;;;12.10;93.60;;;;;;5027922;28;20029;-80
2021/11/18 12:49:47;;;;;;;10.43;2.80;;;12.10;93.50;;;;;;5031564;28;20034;-81
2021/11/18 12:52:24;;;;;;;7.05;3.40;;;12.10;93.70;;;;;;5010775;28;20048;-80
2021/11/18 12:55:11;;;;;;;10.07;3.85;;;12.10;93.70;;;;;;5014288;28;20026;-81
2021/11/18 12:57:41;;;;;;;11.60;4.15;;;12.10;94.00;;;;;;5035104;28;20032;-81
2021/11/18 13:00:16;;;;;;;11.40;4.57;;;12.00;94.20;;;;;;5009355;28;20061;-81
2021/11/18 13:02:45;;;;;;;8.98;3.55;;;11.90;94.20;;;;;;5031593;28;20113;-80